AirNav   Air Wisconsin pilot careers
 
 1520 users online  

80D Clare County Airport
Harrison, Michigan, USA

GOING TO HARRISON?


FAA INFORMATION EFFECTIVE 04 JANUARY 2018

Location

FAA Identifier: 80D
Lat/Long: 44-03-08.2087N / 084-48-47.2891W
44-03.136812N / 084-48.788152W
44.0522802 / -84.8131359
(estimated)
Elevation: 1142 ft. / 348 m (estimated)
Variation: 05W (1985)
From city: 2 miles NW of HARRISON, MI
Time zone: UTC -5 (UTC -4 during Daylight Saving Time)
Zip code: 48625

Airport Operations

Airport use: Open to the public
Activation date: 04/1940
Control tower: no
ARTCC: MINNEAPOLIS CENTER
FSS: LANSING FLIGHT SERVICE STATION
NOTAMs facility: LAN (NOTAM-D service available)
Attendance: IREG
Wind indicator: yes
Segmented circle: yes
Lights: ACTVT LIRL - CTAF.
Beacon: white-green (lighted land airport)
Operates sunset to sunrise.

Airport Communications

CTAF/UNICOM: 122.8
WX ASOS at HTL (19 nm N): 118.05 (989-366-4825)

Nearby radio navigation aids

VOR radial/distance  VOR name  Freq  Var
MOPr358/26.0MOUNT PLEASANT VOR/DME110.6005W
BXZr253/29.4WEST BRANCH VOR/DME113.2006W
CGGr191/(37.9)GRAYLING VOR109.8006W

Airport Services

Parking: tiedowns
Airframe service: NONE
Powerplant service: NONE
Bottled oxygen: NONE
Bulk oxygen: NONE

Runway Information

Runway 18/36

Dimensions: 2978 x 50 ft. / 908 x 15 m
Surface: asphalt, in poor condition
EXTENSIVE CRACKING.
Runway edge lights: non-standard
RY 18/36 NSTD LIRL; 30 FT FM RY EDGE.
Runway edge markings: RY 18/36 MKGS FADED.
RUNWAY 18  RUNWAY 36
Latitude: 44-03.273333N44-02.783333N
Longitude: 084-48.780000W084-48.786667W
Elevation: 1142.0 ft.1142.0 ft.
Gradient: 0.1%0.1%
Traffic pattern: leftleft
Displaced threshold: 473 ft.1152 ft.
Markings: basic, in poor conditionbasic, in poor condition
Runway end identifier lights: nono
Obstructions: 50 ft. trees, 300 ft. from runway, 125 ft. right of centerline, 2:1 slope to clear
APCH RATIO 20:1 AT DSPLCD THLD OVR 57 FT TREE, 1150 FT DSTC.
70 ft. trees, 208 ft. from runway
4 FT FENCE 75 FT FM THLD L/R, 30 FT PLINE 177 FT FM THLD L/R. +68 FT TREES, 201 FM THLD, L/R.

Runway 5/23

Dimensions: 3000 x 100 ft. / 914 x 30 m
Surface: turf, in fair condition
Runway edge markings: RY 5/23 MKD WITH 3 FT YELLOW CONES.
RUNWAY 5  RUNWAY 23
Latitude: 44-02.961667N44-03.293333N
Longitude: 084-49.038333W084-48.531667W
Elevation: 1142.0 ft.1142.0 ft.
Traffic pattern: leftleft
Obstructions: 66 ft. trees, 330 ft. from runway, 5:1 slope to clear
APCH RATIO 20:1 AT DSPLCD THLD OVR 100 FT TREES ON HILL, 2000 FT DSTC, 0 FT BOTH.
42 ft. trees, 50 ft. from runway, 45 ft. right of centerline
APCH RATIO 20:1 AT DSPLCD THLD.

Runway 9/27

Dimensions: 2437 x 100 ft. / 743 x 30 m
Surface: turf, in poor condition
SFC ROUGH.
Runway edge markings: RY 09/27 MARKED WITH 3 FT YELLOW CONES.
RUNWAY 9  RUNWAY 27
Latitude: 44-03.290000N44-03.271667N
Longitude: 084-49.075833W084-48.520000W
Elevation: 1142.0 ft.1142.0 ft.
Traffic pattern: leftleft
Displaced threshold: 1218 ft.882 ft.
Obstructions: 70 ft. trees, 103 ft. left of centerline
APCH RATIO 2:1 AT DSPLCD THLD. OVR 60 FT TREE, 120 FT FM DSPLCD THLD, 92 FT L; 20:1 BASED ON SRAIGHT OUT.
100 ft. trees, 204 ft. from runway, 125 ft. right of centerline, 2:1 slope to clear
APCH RATIO 11:1 AT DSPLCD THLD, 20:1 BASED ON STRAIGHT OUT.

Airport Ownership and Management from official FAA records

Ownership: Publicly-owned
Owner: COUNTY OF CLARE
PO BOX 438
HARRISON, MI 48625
Phone 989-539-2510
Manager: KIM KENNICOTT
PO BOX 438
HARRISON, MI 48625
Phone (989) 445-0186
MGR RES 989-368-1172

Airport Operational Statistics

Aircraft based on the field: 8
Single engine airplanes: 8
    
Aircraft operations: avg 96/week *
60% transient general aviation
40% local general aviation
* for 12-month period ending 31 December 2014

Additional Remarks

RY 09/27 AND 05/23 CLSD NOV THROUGH MAR AND WHEN SNOW COVERED EXCEPT FOR SKI EQUIPPED ACFT.
RDO CTL MODEL ACFT ON & INVOF ARPT.
DEER ON & INVOF ARPT.
RY 27, 22 FT PLINE, 308 FT DSTC, APCH RATIO 14:1. POWERLINE MKD WITH ORANGE BALLS

Instrument Procedures

There are no published instrument procedures at 80D.

Some nearby airports with instrument procedures:

48D - Clare Municipal Airport (13 nm S)
KGDW - Gladwin Zettel Memorial Airport (15 nm E)
KHTL - Roscommon County - Blodgett Memorial Airport (19 nm N)
KMOP - Mount Pleasant Municipal Airport (26 nm S)
KCAD - Wexford County Airport (29 nm NW)
 
Loc | Ops | Rwys | IFR | FBO | Links
Com | Nav | Svcs | Stats | Notes


 
Area around 80D (Clare County Airport)
 
Road maps at: MapQuest Bing Google
 
Aerial photo
WARNING: Photo may not be current or correct
Aerial photo of 80D (Clare County Airport)
Do you have a better or more recent aerial photo of Clare County Airport that you would like to share? If so, please send us your photo.

 
Sectional chart

 
Airport distance calculator
Flying to Clare County Airport? Find the distance to fly.

From to 80D

Sunrise and sunset
Times for 18-Jan-2018
 Local
(UTC-5)
 Zulu
(UTC)
Morning civil twilight07:3812:38
Sunrise08:1013:10
Sunset17:2922:29
Evening civil twilight18:0123:01

Current date and time
Zulu (UTC)  18-Jan-2018 18:09:10
Local (UTC-5)  18-Jan-2018 13:09:10
 
METAR
KHTL 
19nm N 
181753Z AUTO 22012KT 10SM CLR M02/M06 A2988 RMK AO2 SLP135 T10221061 11022 21072 58007
KMOP 
26nm S 
181755Z AUTO 22015G20KT 10SM OVC016 M01/M05 A2994 RMK AO2 T10091052 11009 21048
KCAD 
29nm NW 
181755Z AUTO 22012KT 10SM CLR M02/M05 A2986 RMK AO2 T10201052
KIKW 
33nm SE 
181755Z AUTO 22014KT 10SM BKN019 M01/M05 A2995 RMK AO2 T10071050 11006 21060
KRQB 
36nm SW 
181755Z AUTO 22012G21KT 10SM SCT015 M02/M06 A2992 RMK AO2 T10171058 11015 21056
TAF
KMBS 
44nm SE 
181749Z 1818/1918 23014KT P6SM BKN020 OVC100 FM182200 21010KT P6SM BKN250 FM191400 23015KT P6SM BKN020
NOTAMs
Click for the latest NOTAMs
NOTAMs are issued by the DoD/FAA and will open in a separate window not controlled by AirNav.

 

 
 

Where to Eat: Catering, Restaurants, Food shops

  
 Business Name 
 
 Contact 
 
 Services / Description 
 
Distance
 
Comments
  
Yvonne's Aero-Port Restaurant 989-539-9887
no information available

If you are affiliated with Yvonne's Aero-Port Restaurant and would like to show here your services, contact info, web link, logo, and more, click here
on airport  
   write
 

Would you like to see your business listed on this page?

 If your business provides an interesting product or service to pilots, flight crews, aircraft, or users of the Clare County Airport, you should consider listing it here.  To start the listing process, click on the button below
 
Add a business
 

Other Pages about Clare County Airport

Page from the Michigan Airport Directory (PDF)
 
Update a link
 
Copyright © AirNav, LLC. All rights reserved. Privacy Policy  Contact